Main page
METAR-TAF:

METAR-TAF

Airports :

Wilbarger County Airport

Vernon, Texas, United States

latitude: 34-13-32N, longitude: 099-17-01W, elevation: 1266 ft

Current weather observation

The report was made 33 minutes ago, at 18:55 UTC
Wind 10 mph from the South/Southwest with gusts up to 23 mph
Temperature 100°F
Humidity 35%
Pressure 29.88 in. Hg
Visibility: 10 miles
Scattered clouds at a height of 6000 ft

METAR: KF05 251855Z AUTO 20009G20KT 10SM SCT060 38/20 A2988 RMK AO2 T03750196

Time: 14:28 (19:28 UTC)


TAF: missing

Weather observations and forecasts of more than 4000 airports (METAR and TAF reports).

The available stations are represented by yellow and red dots on the map.

Hover mouse over dot to see the name of the station.

Then click to see weather observations and forecasts.

To change the map : click on the green buttons with a black cross to zoom in, on the green button with a dash to zoom out, or on the green arrows for adjacent maps.


METAR-TAF: